createdAt,value
2018-07-25T00:00:47.176Z,8.88
2018-07-25T00:03:16.144Z,4.60
2018-07-25T00:05:45.148Z,5.25
2018-07-25T00:08:14.788Z,6.78
2018-07-25T00:10:48.408Z,7.58
2018-07-25T00:13:17.851Z,5.50
2018-07-25T00:15:47.432Z,6.47
2018-07-25T00:18:17.406Z,6.65
2018-07-25T00:20:47.363Z,4.65
2018-07-25T00:23:17.275Z,9.13
2018-07-25T00:25:46.277Z,7.23
2018-07-25T00:28:15.306Z,5.15
2018-07-25T00:30:44.470Z,5.97
2018-07-25T00:33:13.546Z,5.28
2018-07-25T00:35:42.651Z,5.35
2018-07-25T00:38:11.459Z,5.17
2018-07-25T00:40:40.351Z,8.00
2018-07-25T00:43:09.106Z,6.30
2018-07-25T00:45:37.970Z,8.50
2018-07-25T00:48:07.318Z,5.78
2018-07-25T00:50:36.297Z,4.63
2018-07-25T00:53:05.400Z,7.22
2018-07-25T00:55:34.387Z,5.20
2018-07-25T00:58:03.376Z,5.72
2018-07-25T01:00:32.399Z,5.93
2018-07-25T01:03:01.335Z,5.28
2018-07-25T01:05:30.328Z,6.97
2018-07-25T01:07:59.275Z,5.58
2018-07-25T01:10:28.228Z,7.15
2018-07-25T01:12:57.199Z,4.80
2018-07-25T01:15:26.006Z,5.30
2018-07-25T01:17:54.871Z,4.28
2018-07-25T01:20:23.851Z,6.57
2018-07-25T01:22:52.842Z,8.10
2018-07-25T01:25:21.859Z,5.40
2018-07-25T01:27:50.823Z,5.65
2018-07-25T01:30:19.579Z,4.72
2018-07-25T01:32:48.508Z,6.80
2018-07-25T01:35:17.570Z,5.23
2018-07-25T01:37:47.486Z,6.75
2018-07-25T01:40:16.498Z,7.25
2018-07-25T01:42:45.499Z,6.45
2018-07-25T01:45:14.479Z,6.03
2018-07-25T01:47:43.509Z,7.25
2018-07-25T01:50:13.229Z,4.58
2018-07-25T01:52:42.185Z,5.70
2018-07-25T01:55:11.159Z,4.97
2018-07-25T01:57:40.124Z,6.03
2018-07-25T02:00:09.115Z,5.33
2018-07-25T02:02:38.103Z,7.15
2018-07-25T02:05:07.055Z,6.60
2018-07-25T02:07:36.044Z,4.83
2018-07-25T02:10:05.967Z,5.90
2018-07-25T02:12:35.064Z,5.67
2018-07-25T02:15:04.511Z,6.67
2018-07-25T02:17:33.479Z,5.45
2018-07-25T02:20:02.455Z,5.12
2018-07-25T02:22:31.484Z,5.75
2018-07-25T02:25:01.163Z,5.50
2018-07-25T02:27:30.267Z,5.20
2018-07-25T02:29:59.027Z,6.57
2018-07-25T02:32:27.901Z,5.95
2018-07-25T02:34:56.870Z,5.85
2018-07-25T02:37:25.867Z,5.20
2018-07-25T02:39:54.591Z,5.22
2018-07-25T02:42:23.266Z,6.30
2018-07-25T02:44:52.118Z,5.55
2018-07-25T02:47:21.076Z,5.58
2018-07-25T02:49:50.107Z,5.67
2018-07-25T02:52:19.166Z,5.23
2018-07-25T02:54:48.247Z,5.65
2018-07-25T02:57:17.963Z,6.10
2018-07-25T02:59:46.870Z,5.10
2018-07-25T03:02:15.916Z,5.70
2018-07-25T03:04:44.983Z,5.08
2018-07-25T03:07:13.995Z,6.58
2018-07-25T03:09:43.028Z,5.20
2018-07-25T03:12:12.036Z,5.85
2018-07-25T03:14:41.021Z,7.10
2018-07-25T03:17:10.036Z,4.27
2018-07-25T03:19:39.059Z,7.00
2018-07-25T03:22:07.988Z,4.55
2018-07-25T03:24:36.980Z,6.70
2018-07-25T03:27:06.035Z,7.37
2018-07-25T03:29:34.766Z,5.33
2018-07-25T03:32:03.606Z,6.07
2018-07-25T03:34:32.595Z,7.83
2018-07-25T03:37:01.553Z,6.97
2018-07-25T03:39:30.537Z,5.40
2018-07-25T03:41:59.482Z,6.35
2018-07-25T03:44:28.479Z,5.20
2018-07-25T03:46:57.439Z,5.70
2018-07-25T03:49:26.194Z,6.60
2018-07-25T03:51:55.027Z,5.67
2018-07-25T03:54:23.872Z,5.37
2018-07-25T03:56:52.688Z,5.25
2018-07-25T03:59:21.770Z,5.70
2018-07-25T04:01:50.798Z,7.42
2018-07-25T04:04:19.788Z,4.65
2018-07-25T04:06:48.890Z,6.65
2018-07-25T04:09:18.649Z,4.97
2018-07-25T04:11:47.542Z,6.00
2018-07-25T04:14:16.567Z,6.23
2018-07-25T04:16:45.672Z,6.67
2018-07-25T04:19:14.633Z,6.10
2018-07-25T04:21:44.308Z,4.50
2018-07-25T04:24:13.872Z,6.37
2018-07-25T04:26:42.824Z,5.25
2018-07-25T04:29:11.835Z,5.62
2018-07-25T04:31:40.789Z,6.08
2018-07-25T04:34:09.768Z,6.82
2018-07-25T04:36:38.965Z,7.55
2018-07-25T04:39:11.103Z,5.30
2018-07-25T04:41:40.359Z,6.12
2018-07-25T04:44:09.710Z,7.92
2018-07-25T04:46:38.634Z,7.97
2018-07-25T04:49:07.411Z,7.27
2018-07-25T04:51:36.210Z,6.10
2018-07-25T04:54:05.092Z,6.62
2018-07-25T04:56:34.074Z,5.50
2018-07-25T04:59:03.024Z,9.80
2018-07-25T05:01:31.774Z,6.15
2018-07-25T05:04:00.611Z,7.17
2018-07-25T05:06:29.453Z,5.72
2018-07-25T05:08:58.303Z,5.67
2018-07-25T05:11:27.300Z,4.60
2018-07-25T05:13:56.302Z,7.58
2018-07-25T05:16:25.287Z,4.95
2018-07-25T05:18:54.300Z,7.90
2018-07-25T05:21:23.280Z,7.00
2018-07-25T05:23:52.234Z,6.05
2018-07-25T05:26:21.167Z,5.30
2018-07-25T05:28:50.907Z,6.25
2018-07-25T05:31:20.814Z,8.38
2018-07-25T05:33:49.877Z,7.70
2018-07-25T05:36:18.640Z,6.87
2018-07-25T05:38:47.539Z,6.53
2018-07-25T05:41:16.839Z,9.18
2018-07-25T05:43:45.970Z,7.35
2018-07-25T05:46:15.096Z,5.87
2018-07-25T05:48:43.856Z,7.85
2018-07-25T05:51:12.686Z,8.08
2018-07-25T05:53:41.534Z,7.75
2018-07-25T05:56:10.977Z,9.33
2018-07-25T05:58:40.011Z,11.60
2018-07-25T06:01:09.082Z,12.07
2018-07-25T06:03:37.950Z,7.23
2018-07-25T06:06:06.967Z,7.87
2018-07-25T06:08:36.057Z,6.83
2018-07-25T06:11:05.527Z,4.75
2018-07-25T06:13:34.532Z,6.90
2018-07-25T06:16:04.536Z,6.12
2018-07-25T06:18:33.520Z,5.13
2018-07-25T06:21:02.575Z,12.33
2018-07-25T06:23:31.587Z,6.20
2018-07-25T06:26:00.649Z,6.10
2018-07-25T06:28:29.568Z,7.35
2018-07-25T06:30:58.310Z,6.15
2018-07-25T06:33:27.085Z,7.47
2018-07-25T06:35:56.005Z,8.83
2018-07-25T06:38:25.100Z,3.85
2018-07-25T06:40:54.139Z,6.45
2018-07-25T06:43:23.110Z,9.47
2018-07-25T06:45:52.137Z,6.12
2018-07-25T06:48:21.190Z,6.90
2018-07-25T06:50:51.209Z,5.90
2018-07-25T06:53:21.067Z,6.47
2018-07-25T06:55:50.152Z,6.97
2018-07-25T06:58:18.977Z,5.45
2018-07-25T07:00:47.867Z,5.65
2018-07-25T07:03:16.915Z,5.05
2018-07-25T07:05:45.957Z,3.85
2018-07-25T07:08:15.013Z,5.20
2018-07-25T07:10:44.042Z,3.30
2018-07-25T07:13:13.002Z,4.08
2018-07-25T07:15:42.012Z,4.67
2018-07-25T07:18:11.000Z,5.00
2018-07-25T07:20:40.008Z,3.33
2018-07-25T07:23:09.131Z,5.15
2018-07-25T07:25:38.141Z,4.78
2018-07-25T07:28:07.128Z,5.47
2018-07-25T07:30:36.481Z,4.07
2018-07-25T07:33:05.620Z,4.83
2018-07-25T07:35:34.604Z,3.97
2018-07-25T07:38:03.630Z,5.00
2018-07-25T07:40:32.607Z,4.37
2018-07-25T07:43:01.617Z,3.53
2018-07-25T07:45:30.635Z,4.15
2018-07-25T07:47:59.598Z,4.17
2018-07-25T07:50:29.262Z,5.35
2018-07-25T07:52:58.090Z,4.28
2018-07-25T07:55:27.050Z,4.85
2018-07-25T07:57:56.063Z,5.48
2018-07-25T08:00:25.035Z,3.90
2018-07-25T08:02:53.786Z,4.35
2018-07-25T08:05:22.670Z,2.95
2018-07-25T08:07:51.691Z,5.22
2018-07-25T08:10:22.235Z,9.35
2018-07-25T08:12:51.791Z,3.98
2018-07-25T08:15:21.812Z,5.00
2018-07-25T08:17:51.830Z,5.25
2018-07-25T08:30:10.819Z,3.73
2018-07-25T08:32:39.898Z,3.75
2018-07-25T08:35:08.869Z,4.17
2018-07-25T08:37:37.619Z,6.83
2018-07-25T08:40:06.536Z,5.67
2018-07-25T08:42:35.510Z,5.33
2018-07-25T08:45:05.551Z,3.55
2018-07-25T08:47:34.558Z,4.53
2018-07-25T08:50:04.627Z,5.30
2018-07-25T08:52:33.499Z,4.83
2018-07-25T08:55:02.287Z,8.27
2018-07-25T08:57:31.415Z,4.97
2018-07-25T09:00:00.407Z,6.00
2018-07-25T09:02:29.452Z,4.83
2018-07-25T09:04:58.496Z,5.08
2018-07-25T09:07:27.581Z,7.78
2018-07-25T09:09:56.441Z,4.43
2018-07-25T09:12:26.015Z,4.45
2018-07-25T09:14:55.024Z,5.35
2018-07-25T09:17:24.014Z,4.87
2018-07-25T09:19:53.083Z,4.80
2018-07-25T09:22:23.208Z,3.84
2018-07-25T09:24:52.394Z,7.03
2018-07-25T09:27:22.302Z,6.92
2018-07-25T09:29:52.250Z,7.53
2018-07-25T09:40:27.147Z,7.05
2018-07-25T09:42:56.082Z,8.08
2018-07-25T09:45:24.818Z,3.72
2018-07-25T09:47:53.681Z,4.75
2018-07-25T09:50:22.695Z,8.50
2018-07-25T09:52:52.397Z,6.10
2018-07-25T09:55:22.088Z,4.17
2018-07-25T09:57:51.120Z,7.93
2018-07-25T10:00:25.689Z,5.97
2018-07-25T10:02:54.567Z,8.25
2018-07-25T10:05:23.593Z,7.70
2018-07-25T10:07:52.629Z,6.60
2018-07-25T10:10:22.554Z,4.33
2018-07-25T10:12:52.742Z,4.33
2018-07-25T10:15:22.505Z,4.70
2018-07-25T10:17:52.456Z,5.87
2018-07-25T10:20:21.499Z,4.60
2018-07-25T10:22:50.569Z,4.30
2018-07-25T10:25:19.636Z,6.42
2018-07-25T10:27:48.576Z,5.75
2018-07-25T10:30:17.607Z,7.60
2018-07-25T10:32:46.584Z,3.77
2018-07-25T10:35:15.535Z,5.97
2018-07-25T10:37:44.582Z,4.67
2018-07-25T10:40:13.571Z,4.47
2018-07-25T10:42:42.561Z,9.03
2018-07-25T10:45:11.600Z,3.90
2018-07-25T10:47:41.080Z,4.10
2018-07-25T10:50:10.488Z,4.25
2018-07-25T10:52:39.500Z,4.62
2018-07-25T10:55:08.528Z,4.92
2018-07-25T10:57:37.500Z,6.08
2018-07-25T11:00:07.115Z,5.25
2018-07-25T11:02:36.312Z,4.53
2018-07-25T11:05:05.063Z,4.17
2018-07-25T11:07:33.939Z,5.60
2018-07-25T11:10:03.171Z,7.17
2018-07-25T11:12:32.201Z,5.97
2018-07-25T11:15:01.271Z,7.20
2018-07-25T11:17:30.436Z,3.93
2018-07-25T11:20:00.372Z,10.20
2018-07-25T11:22:29.368Z,5.50
2018-07-25T11:24:58.206Z,5.22
2018-07-25T11:27:27.107Z,4.17
2018-07-25T11:29:56.292Z,4.58
2018-07-25T11:32:25.398Z,4.55
2018-07-25T11:34:54.150Z,4.40
2018-07-25T11:37:23.007Z,4.70
2018-07-25T11:39:52.951Z,3.87
2018-07-25T11:42:22.820Z,5.43
2018-07-25T11:44:52.516Z,4.10
2018-07-25T11:47:21.377Z,5.17
2018-07-25T11:49:50.378Z,4.50
2018-07-25T11:52:19.353Z,4.95
2018-07-25T11:54:48.468Z,6.90
2018-07-25T11:57:17.448Z,5.42
2018-07-25T11:59:46.442Z,4.67
2018-07-25T12:02:15.400Z,6.17
2018-07-25T12:04:44.415Z,5.32
2018-07-25T12:07:13.371Z,4.90
2018-07-25T12:09:42.388Z,4.70
2018-07-25T12:12:11.375Z,7.28
2018-07-25T12:14:40.465Z,4.87
2018-07-25T12:17:09.271Z,5.50
2018-07-25T12:19:38.159Z,5.60
2018-07-25T12:22:07.123Z,4.90
2018-07-25T12:24:36.810Z,6.45
2018-07-25T12:27:05.766Z,7.28
2018-07-25T12:29:34.767Z,4.05
2018-07-25T12:32:03.671Z,5.58
2018-07-25T12:34:32.515Z,6.12
2018-07-25T12:37:01.539Z,6.60
2018-07-25T12:39:30.508Z,5.13
2018-07-25T12:41:59.515Z,5.97
2018-07-25T12:44:28.539Z,7.57
2018-07-25T12:46:57.523Z,6.93
2018-07-25T12:49:26.536Z,6.33
2018-07-25T12:51:55.577Z,6.92
2018-07-25T12:54:24.632Z,5.20
2018-07-25T12:56:53.644Z,4.90
2018-07-25T12:59:23.471Z,6.58
2018-07-25T13:01:52.737Z,6.92
2018-07-25T13:04:21.688Z,6.22
2018-07-25T13:06:50.737Z,5.87
2018-07-25T13:09:19.632Z,4.55
2018-07-25T13:11:48.525Z,6.42
2018-07-25T13:14:17.529Z,4.62
2018-07-25T13:16:46.552Z,7.12
2018-07-25T13:19:15.528Z,8.48
2018-07-25T13:21:44.563Z,6.53
2018-07-25T13:24:13.319Z,5.10
2018-07-25T13:26:42.174Z,4.87
2018-07-25T13:29:11.135Z,4.28
2018-07-25T13:31:39.928Z,3.40
2018-07-25T13:34:08.824Z,3.87
2018-07-25T13:36:38.043Z,5.15
2018-07-25T13:39:07.976Z,4.33
2018-07-25T13:41:36.959Z,3.57
2018-07-25T13:44:06.042Z,7.85
2018-07-25T13:46:34.897Z,5.33
2018-07-25T13:49:03.913Z,4.58
2018-07-25T13:51:32.939Z,3.65
2018-07-25T13:54:01.944Z,6.42
2018-07-25T13:56:30.952Z,4.55
2018-07-25T13:58:59.923Z,4.20
2018-07-25T14:01:28.943Z,5.67
2018-07-25T14:03:58.017Z,6.30
2018-07-25T14:06:27.007Z,4.03
2018-07-25T14:08:56.056Z,7.47
2018-07-25T14:11:25.121Z,6.53
2018-07-25T14:13:54.447Z,8.05
2018-07-25T14:16:24.371Z,5.55
2018-07-25T14:18:53.439Z,8.63
2018-07-25T14:21:22.190Z,7.95
2018-07-25T14:23:51.232Z,7.35
2018-07-25T14:26:20.088Z,3.95
2018-07-25T14:28:49.089Z,5.15
2018-07-25T14:31:18.048Z,6.57
2018-07-25T14:33:48.099Z,5.35
2018-07-25T14:36:17.113Z,4.60
2018-07-25T14:38:46.057Z,5.37
2018-07-25T14:41:15.072Z,6.93
2018-07-25T14:43:45.029Z,5.05
2018-07-25T14:46:14.076Z,4.33
2018-07-25T14:48:43.070Z,7.33
2018-07-25T14:51:12.124Z,5.58
2018-07-25T14:53:40.835Z,5.90
2018-07-25T14:56:09.711Z,6.22
2018-07-25T14:58:39.247Z,4.40
2018-07-25T15:01:08.284Z,5.58
2018-07-25T15:03:37.026Z,4.45
2018-07-25T15:06:05.917Z,4.37
2018-07-25T15:08:34.971Z,4.12
2018-07-25T15:11:03.970Z,4.40
2018-07-25T15:13:32.802Z,4.43
2018-07-25T15:16:01.529Z,6.33
2018-07-25T15:18:30.440Z,4.85
2018-07-25T15:20:59.483Z,6.85
2018-07-25T15:23:40.224Z,4.75
2018-07-25T15:26:09.255Z,3.73
2018-07-25T15:28:37.994Z,4.87
2018-07-25T15:31:06.639Z,4.87
2018-07-25T15:33:35.503Z,5.03
2018-07-25T15:36:04.785Z,5.33
2018-07-25T15:38:33.743Z,4.72
2018-07-25T15:41:02.741Z,3.43
2018-07-25T15:43:31.714Z,4.57
2018-07-25T15:46:00.731Z,4.35
2018-07-25T15:48:29.776Z,6.20
2018-07-25T15:50:58.835Z,5.28
2018-07-25T15:53:27.863Z,3.92
2018-07-25T15:55:57.056Z,4.95
2018-07-25T15:58:28.031Z,4.67
2018-07-25T16:00:57.924Z,4.87
2018-07-25T16:03:27.073Z,3.98
2018-07-25T16:05:56.982Z,4.92
2018-07-25T16:08:25.995Z,4.05
2018-07-25T16:10:55.257Z,4.12
2018-07-25T16:13:24.039Z,4.00
2018-07-25T16:15:52.903Z,3.65
2018-07-25T16:18:21.776Z,5.00
2018-07-25T16:20:50.655Z,3.77
2018-07-25T16:23:20.194Z,3.70
2018-07-25T16:25:49.235Z,3.70
2018-07-25T16:28:18.217Z,4.20
2018-07-25T16:30:47.297Z,4.80
2018-07-25T16:33:16.354Z,4.47
2018-07-25T16:35:45.342Z,4.67
2018-07-25T16:38:14.084Z,3.87
2018-07-25T16:40:42.999Z,3.72
2018-07-25T16:43:11.974Z,3.65
2018-07-25T16:45:41.058Z,5.08
2018-07-25T16:48:10.028Z,5.80
2018-07-25T16:50:39.056Z,4.73
2018-07-25T16:53:08.323Z,4.00
2018-07-25T16:55:37.320Z,4.47
2018-07-25T16:58:06.473Z,5.00
2018-07-25T17:00:35.279Z,4.43
2018-07-25T17:03:04.145Z,4.30
2018-07-25T17:05:33.190Z,4.16
2018-07-25T17:08:02.163Z,3.92
2018-07-25T17:10:30.974Z,3.60
2018-07-25T17:12:59.877Z,4.62
2018-07-25T17:15:28.643Z,3.65
2018-07-25T17:17:57.553Z,4.47
2018-07-25T17:20:26.638Z,3.27
2018-07-25T17:22:55.769Z,3.87
2018-07-25T17:25:26.055Z,4.30
2018-07-25T17:27:55.075Z,3.67
2018-07-25T17:30:24.074Z,3.45
2018-07-25T17:32:53.123Z,5.42
2018-07-25T17:35:21.992Z,4.30
2018-07-25T17:37:50.848Z,6.20
2018-07-25T17:40:19.911Z,4.40
2018-07-25T17:42:48.979Z,5.87
2018-07-25T17:45:17.962Z,5.17
2018-07-25T17:47:46.984Z,3.87
2018-07-25T17:50:15.997Z,4.47
2018-07-25T17:52:44.963Z,4.62
2018-07-25T17:55:13.998Z,5.40
2018-07-25T17:57:43.154Z,4.23
2018-07-25T18:00:12.708Z,5.42
2018-07-25T18:02:41.727Z,4.23
2018-07-25T18:05:11.075Z,6.03
2018-07-25T18:07:39.942Z,4.37
2018-07-25T18:10:08.832Z,3.33
2018-07-25T18:12:37.787Z,4.40
2018-07-25T18:15:08.023Z,5.37
2018-07-25T18:17:37.084Z,4.57
2018-07-25T18:20:06.564Z,3.70
2018-07-25T18:22:35.761Z,3.17
2018-07-25T18:25:05.444Z,3.67
2018-07-25T18:27:34.443Z,3.70
2018-07-25T18:30:03.456Z,3.33
2018-07-25T18:32:32.228Z,2.87
2018-07-25T18:35:01.108Z,4.40
2018-07-25T18:37:30.117Z,3.22
2018-07-25T18:39:59.721Z,3.80
2018-07-25T18:42:28.728Z,5.63
2018-07-25T18:44:57.736Z,3.13
2018-07-25T18:47:26.746Z,4.10
2018-07-25T18:49:55.705Z,4.37
2018-07-25T18:52:24.781Z,6.45
2018-07-25T18:54:53.843Z,4.08
2018-07-25T18:57:22.820Z,4.50
2018-07-25T18:59:51.584Z,4.72
2018-07-25T19:02:20.984Z,4.80
2018-07-25T19:04:50.032Z,4.03
2018-07-25T19:07:19.181Z,4.90
2018-07-25T19:09:48.244Z,4.65
2018-07-25T19:12:17.443Z,4.77
2018-07-25T19:14:51.926Z,5.40
2018-07-25T19:17:21.134Z,5.70
2018-07-25T19:19:50.223Z,6.05
2018-07-25T19:22:19.987Z,5.25
2018-07-25T19:24:49.231Z,5.57
2018-07-25T19:27:18.047Z,5.30
2018-07-25T19:29:47.019Z,6.35
2018-07-25T19:32:16.059Z,5.73
2018-07-25T19:34:45.096Z,6.60
2018-07-25T19:37:13.919Z,6.45
2018-07-25T19:39:42.944Z,7.78
2018-07-25T19:42:11.936Z,6.93
2018-07-25T19:44:41.534Z,6.05
2018-07-25T19:47:10.560Z,7.37
2018-07-25T19:49:39.621Z,5.80
2018-07-25T19:52:08.647Z,7.17
2018-07-25T19:54:37.736Z,6.45
2018-07-25T19:57:06.674Z,7.00
2018-07-25T19:59:35.768Z,6.10
2018-07-25T20:02:04.875Z,7.67
2018-07-25T20:04:33.992Z,6.75
2018-07-25T20:07:03.097Z,6.33
2018-07-25T20:09:32.161Z,6.15
2018-07-25T20:12:01.830Z,6.22
2018-07-25T20:14:36.364Z,6.83
2018-07-25T20:17:05.500Z,7.04
2018-07-25T20:19:34.572Z,7.50
2018-07-25T20:22:03.647Z,7.37
2018-07-25T20:24:32.938Z,8.35
2018-07-25T20:27:02.076Z,6.28
2018-07-25T20:29:31.137Z,7.85
2018-07-25T20:32:00.550Z,6.25
2018-07-25T20:34:29.456Z,7.87
2018-07-25T20:36:58.239Z,6.73
2018-07-25T20:39:27.132Z,7.33
2018-07-25T20:41:56.237Z,7.40
2018-07-25T20:44:25.250Z,6.67
2018-07-25T20:46:54.277Z,7.78
2018-07-25T20:49:23.456Z,7.00
2018-07-25T20:51:52.613Z,8.43
2018-07-25T20:54:21.673Z,8.43
2018-07-25T20:56:50.708Z,8.07
2018-07-25T20:59:19.773Z,7.33
2018-07-25T21:01:49.416Z,7.50
2018-07-25T21:04:18.424Z,7.10
2018-07-25T21:06:47.483Z,9.00
2018-07-25T21:09:16.522Z,7.00
2018-07-25T21:11:45.509Z,8.57
2018-07-25T21:14:14.283Z,8.45
2018-07-25T21:16:43.190Z,7.87
2018-07-25T21:19:12.159Z,8.50
2018-07-25T21:21:41.217Z,7.80
2018-07-25T21:24:10.784Z,8.60
2018-07-25T21:26:39.756Z,8.27
2018-07-25T21:29:08.756Z,7.83
2018-07-25T21:31:37.746Z,7.42
2018-07-25T21:34:06.720Z,8.33
2018-07-25T21:36:35.702Z,9.43
2018-07-25T21:39:07.913Z,8.50
2018-07-25T21:41:36.867Z,9.35
2018-07-25T21:44:05.927Z,7.00
2018-07-25T21:46:35.035Z,8.13
2018-07-25T21:49:04.088Z,8.03
2018-07-25T21:51:33.479Z,8.40
2018-07-25T21:54:02.475Z,7.55
2018-07-25T21:56:31.718Z,9.38
2018-07-25T21:59:00.723Z,10.28
2018-07-25T22:01:30.465Z,8.93
2018-07-25T22:03:59.811Z,8.80
2018-07-25T22:06:28.752Z,8.68
2018-07-25T22:08:57.774Z,8.55
2018-07-25T22:11:26.726Z,8.48
2018-07-25T22:13:56.842Z,11.93
2018-07-25T22:16:27.176Z,10.40
2018-07-25T22:18:56.275Z,13.50
2018-07-25T22:21:25.122Z,11.37
2018-07-25T22:23:54.019Z,13.72
2018-07-25T22:26:23.029Z,12.93
2018-07-25T22:28:52.747Z,12.73
2018-07-25T22:31:22.368Z,13.72
2018-07-25T22:33:51.492Z,13.08
2018-07-25T22:36:20.518Z,16.17
2018-07-25T22:38:49.303Z,13.38
2018-07-25T22:41:18.138Z,13.17
2018-07-25T22:43:47.387Z,15.30
2018-07-25T22:46:16.807Z,16.23
2018-07-25T22:48:45.898Z,15.53
2018-07-25T22:51:15.108Z,17.27
2018-07-25T22:53:44.075Z,18.50
2018-07-25T22:56:13.400Z,17.57
2018-07-25T22:58:42.372Z,17.52
2018-07-25T23:01:11.380Z,15.37
2018-07-25T23:03:40.342Z,17.93
2018-07-25T23:06:09.335Z,13.77
2018-07-25T23:08:38.848Z,19.52
2018-07-25T23:11:07.855Z,19.52
2018-07-25T23:13:36.838Z,20.62
2018-07-25T23:16:06.012Z,19.98
2018-07-25T23:18:34.991Z,20.40
2018-07-25T23:21:04.083Z,20.00
2018-07-25T23:23:34.008Z,20.12
2018-07-25T23:26:03.792Z,19.87
2018-07-25T23:28:32.683Z,18.85
2018-07-25T23:31:01.701Z,20.43
2018-07-25T23:33:30.724Z,18.15
2018-07-25T23:35:59.744Z,18.52
2018-07-25T23:38:28.474Z,17.90
2018-07-25T23:40:57.870Z,20.12
2018-07-25T23:43:26.587Z,19.40
2018-07-25T23:45:55.458Z,19.40
2018-07-25T23:48:24.471Z,18.17
2018-07-25T23:50:53.482Z,17.05
2018-07-25T23:53:22.495Z,19.80
2018-07-25T23:55:51.491Z,21.12
2018-07-25T23:58:21.415Z,20.57
